Kisarazu Airport Kisarazu JP
ICAO: RJTK
IATA:
Category: Medium
Scheduled Services:

Elevation: 10 ft
TransAlt. 0 ft.

Airport Communications:
TOKYO APP:119.1
TWR:126.2

RJTK Zoom In..

If you have problems with the map follow the link
https://www.worldairports.se/pages/airport.php?
ICAO=RJTK

Runways:

Location; RJTK
Day. 20 / Time. 06.32 Zulu
* Altimeter: 29.98
* Temperature: 22° c. 71.6°f.
* Wind from: 030° Speed 11 kn.
Dewpoint: 10° c.
Visibility: 10 km or more.
Clouds: Few 3000 ft.
Clouds: Scattered 12000 ft.

RJTK 200632Z 03011KT 9999 FEW030 SCT120 22/10 Q1015 RMK 2CU030 4AC120 A2998


Wind From 030°
Speed 11 kn.

 
 
jpsmedia.com for Web Design worldairports.se 2018   terms of use